sensor_id;sensor_type;location;lat;lon;timestamp;P1;durP1;ratioP1;P2;durP2;ratioP2
8831;SDS011;4452;50.756;4.472;2022-12-08T00:01:17;83.90;;;30.70;;
8831;SDS011;4452;50.756;4.472;2022-12-08T00:03:45;74.40;;;28.15;;
8831;SDS011;4452;50.756;4.472;2022-12-08T00:06:18;53.65;;;22.83;;
8831;SDS011;4452;50.756;4.472;2022-12-08T00:09:32;75.50;;;28.25;;
8831;SDS011;4452;50.756;4.472;2022-12-08T00:14:39;62.67;;;25.92;;
8831;SDS011;4452;50.756;4.472;2022-12-08T00:17:06;67.97;;;26.55;;
8831;SDS011;4452;50.756;4.472;2022-12-08T00:19:34;73.50;;;26.08;;
8831;SDS011;4452;50.756;4.472;2022-12-08T00:22:00;77.97;;;28.85;;
8831;SDS011;4452;50.756;4.472;2022-12-08T00:24:31;50.75;;;21.55;;
8831;SDS011;4452;50.756;4.472;2022-12-08T00:26:59;60.17;;;22.52;;
8831;SDS011;4452;50.756;4.472;2022-12-08T00:29:25;62.55;;;25.25;;
8831;SDS011;4452;50.756;4.472;2022-12-08T00:31:52;47.67;;;21.25;;
8831;SDS011;4452;50.756;4.472;2022-12-08T00:34:18;59.83;;;22.30;;
8831;SDS011;4452;50.756;4.472;2022-12-08T00:36:44;78.40;;;27.77;;
8831;SDS011;4452;50.756;4.472;2022-12-08T00:39:10;77.30;;;28.08;;
8831;SDS011;4452;50.756;4.472;2022-12-08T00:41:37;93.05;;;34.63;;
8831;SDS011;4452;50.756;4.472;2022-12-08T00:44:22;55.83;;;23.17;;
8831;SDS011;4452;50.756;4.472;2022-12-08T00:46:48;56.08;;;22.80;;
8831;SDS011;4452;50.756;4.472;2022-12-08T00:49:14;47.75;;;23.08;;
8831;SDS011;4452;50.756;4.472;2022-12-08T00:51:40;58.28;;;26.17;;
8831;SDS011;4452;50.756;4.472;2022-12-08T00:54:07;57.95;;;27.50;;
8831;SDS011;4452;50.756;4.472;2022-12-08T00:56:33;38.45;;;21.63;;
8831;SDS011;4452;50.756;4.472;2022-12-08T00:58:59;74.72;;;26.83;;
8831;SDS011;4452;50.756;4.472;2022-12-08T01:01:25;52.85;;;22.55;;
8831;SDS011;4452;50.756;4.472;2022-12-08T01:03:51;83.20;;;30.50;;
8831;SDS011;4452;50.756;4.472;2022-12-08T01:06:17;52.20;;;22.40;;
8831;SDS011;4452;50.756;4.472;2022-12-08T01:08:43;30.55;;;17.02;;
8831;SDS011;4452;50.756;4.472;2022-12-08T01:11:10;57.65;;;22.98;;
8831;SDS011;4452;50.756;4.472;2022-12-08T01:13:37;91.57;;;34.00;;
8831;SDS011;4452;50.756;4.472;2022-12-08T01:16:04;106.65;;;37.33;;
8831;SDS011;4452;50.756;4.472;2022-12-08T01:18:30;73.80;;;28.58;;
8831;SDS011;4452;50.756;4.472;2022-12-08T01:21:05;114.28;;;39.65;;
8831;SDS011;4452;50.756;4.472;2022-12-08T01:23:32;60.90;;;28.60;;
8831;SDS011;4452;50.756;4.472;2022-12-08T01:26:03;69.22;;;26.00;;
8831;SDS011;4452;50.756;4.472;2022-12-08T01:28:30;89.70;;;34.17;;
8831;SDS011;4452;50.756;4.472;2022-12-08T01:30:56;61.90;;;20.33;;
8831;SDS011;4452;50.756;4.472;2022-12-08T01:33:23;53.65;;;24.73;;
8831;SDS011;4452;50.756;4.472;2022-12-08T01:35:49;68.60;;;22.50;;
8831;SDS011;4452;50.756;4.472;2022-12-08T01:38:15;86.45;;;27.88;;
8831;SDS011;4452;50.756;4.472;2022-12-08T01:40:41;94.85;;;31.92;;
8831;SDS011;4452;50.756;4.472;2022-12-08T01:43:10;85.20;;;26.63;;
8831;SDS011;4452;50.756;4.472;2022-12-08T01:45:41;63.75;;;21.63;;
8831;SDS011;4452;50.756;4.472;2022-12-08T01:48:08;84.40;;;29.25;;
8831;SDS011;4452;50.756;4.472;2022-12-08T01:50:38;79.25;;;28.88;;
8831;SDS011;4452;50.756;4.472;2022-12-08T01:53:13;66.63;;;28.88;;
8831;SDS011;4452;50.756;4.472;2022-12-08T01:55:45;60.22;;;24.10;;
8831;SDS011;4452;50.756;4.472;2022-12-08T01:58:15;95.53;;;31.27;;
8831;SDS011;4452;50.756;4.472;2022-12-08T02:00:46;56.13;;;20.92;;
8831;SDS011;4452;50.756;4.472;2022-12-08T02:03:47;44.97;;;18.63;;
8831;SDS011;4452;50.756;4.472;2022-12-08T02:06:08;71.93;;;26.27;;
8831;SDS011;4452;50.756;4.472;2022-12-08T02:08:35;75.78;;;27.20;;
8831;SDS011;4452;50.756;4.472;2022-12-08T02:11:04;109.10;;;34.17;;
8831;SDS011;4452;50.756;4.472;2022-12-08T02:13:33;108.63;;;38.55;;
8831;SDS011;4452;50.756;4.472;2022-12-08T02:16:15;60.05;;;25.13;;
8831;SDS011;4452;50.756;4.472;2022-12-08T02:27:06;82.47;;;33.10;;
8831;SDS011;4452;50.756;4.472;2022-12-08T02:35:35;77.72;;;30.33;;
8831;SDS011;4452;50.756;4.472;2022-12-08T02:38:24;71.10;;;28.45;;
8831;SDS011;4452;50.756;4.472;2022-12-08T02:44:47;117.95;;;40.30;;
8831;SDS011;4452;50.756;4.472;2022-12-08T02:47:22;119.35;;;36.72;;
8831;SDS011;4452;50.756;4.472;2022-12-08T02:49:50;73.53;;;28.83;;
8831;SDS011;4452;50.756;4.472;2022-12-08T02:54:46;86.72;;;32.20;;
8831;SDS011;4452;50.756;4.472;2022-12-08T03:08:15;61.65;;;24.15;;
8831;SDS011;4452;50.756;4.472;2022-12-08T03:11:07;70.45;;;26.23;;
8831;SDS011;4452;50.756;4.472;2022-12-08T03:13:55;47.78;;;20.30;;
8831;SDS011;4452;50.756;4.472;2022-12-08T03:16:25;36.42;;;15.30;;
8831;SDS011;4452;50.756;4.472;2022-12-08T03:18:59;77.68;;;30.83;;
8831;SDS011;4452;50.756;4.472;2022-12-08T03:21:35;50.33;;;22.65;;
8831;SDS011;4452;50.756;4.472;2022-12-08T03:24:03;88.45;;;32.17;;
8831;SDS011;4452;50.756;4.472;2022-12-08T03:26:40;94.65;;;33.70;;
8831;SDS011;4452;50.756;4.472;2022-12-08T03:29:15;70.00;;;26.83;;
8831;SDS011;4452;50.756;4.472;2022-12-08T03:31:44;84.30;;;30.83;;
8831;SDS011;4452;50.756;4.472;2022-12-08T03:34:18;79.78;;;28.63;;
8831;SDS011;4452;50.756;4.472;2022-12-08T03:36:47;93.63;;;33.95;;
8831;SDS011;4452;50.756;4.472;2022-12-08T03:39:12;52.53;;;19.00;;
8831;SDS011;4452;50.756;4.472;2022-12-08T03:41:38;65.03;;;26.13;;
8831;SDS011;4452;50.756;4.472;2022-12-08T03:44:04;86.30;;;30.25;;
8831;SDS011;4452;50.756;4.472;2022-12-08T03:46:30;96.45;;;29.27;;
8831;SDS011;4452;50.756;4.472;2022-12-08T03:48:56;68.90;;;23.00;;
8831;SDS011;4452;50.756;4.472;2022-12-08T03:51:22;62.83;;;24.50;;
8831;SDS011;4452;50.756;4.472;2022-12-08T03:53:48;64.93;;;23.17;;
8831;SDS011;4452;50.756;4.472;2022-12-08T03:58:43;34.38;;;16.95;;
8831;SDS011;4452;50.756;4.472;2022-12-08T04:01:09;38.33;;;17.45;;
8831;SDS011;4452;50.756;4.472;2022-12-08T04:03:35;80.38;;;25.58;;
8831;SDS011;4452;50.756;4.472;2022-12-08T04:06:01;73.88;;;28.40;;
8831;SDS011;4452;50.756;4.472;2022-12-08T04:08:26;67.00;;;27.85;;
8831;SDS011;4452;50.756;4.472;2022-12-08T04:10:52;74.78;;;31.45;;
8831;SDS011;4452;50.756;4.472;2022-12-08T04:13:17;75.63;;;29.58;;
8831;SDS011;4452;50.756;4.472;2022-12-08T04:15:44;74.97;;;28.63;;
8831;SDS011;4452;50.756;4.472;2022-12-08T04:18:10;87.07;;;30.52;;
8831;SDS011;4452;50.756;4.472;2022-12-08T04:20:40;47.97;;;21.75;;
8831;SDS011;4452;50.756;4.472;2022-12-08T04:23:08;53.58;;;23.17;;
8831;SDS011;4452;50.756;4.472;2022-12-08T04:25:34;68.25;;;25.65;;
8831;SDS011;4452;50.756;4.472;2022-12-08T04:28:01;74.55;;;29.58;;
8831;SDS011;4452;50.756;4.472;2022-12-08T04:30:27;75.25;;;28.83;;
8831;SDS011;4452;50.756;4.472;2022-12-08T04:32:53;74.63;;;29.70;;
8831;SDS011;4452;50.756;4.472;2022-12-08T04:35:19;60.85;;;24.73;;
8831;SDS011;4452;50.756;4.472;2022-12-08T04:37:44;74.60;;;26.92;;
8831;SDS011;4452;50.756;4.472;2022-12-08T04:40:10;44.25;;;22.23;;
8831;SDS011;4452;50.756;4.472;2022-12-08T04:42:37;95.85;;;33.20;;
8831;SDS011;4452;50.756;4.472;2022-12-08T04:45:03;77.32;;;27.20;;
8831;SDS011;4452;50.756;4.472;2022-12-08T04:47:29;77.05;;;29.38;;
8831;SDS011;4452;50.756;4.472;2022-12-08T04:49:55;90.43;;;34.17;;
8831;SDS011;4452;50.756;4.472;2022-12-08T04:52:22;45.78;;;21.67;;
8831;SDS011;4452;50.756;4.472;2022-12-08T04:54:47;81.05;;;27.75;;
8831;SDS011;4452;50.756;4.472;2022-12-08T04:57:13;105.05;;;34.15;;
8831;SDS011;4452;50.756;4.472;2022-12-08T04:59:39;58.17;;;20.65;;
8831;SDS011;4452;50.756;4.472;2022-12-08T05:02:04;75.75;;;29.08;;
8831;SDS011;4452;50.756;4.472;2022-12-08T05:04:30;74.25;;;27.13;;
8831;SDS011;4452;50.756;4.472;2022-12-08T05:06:56;56.63;;;21.42;;
8831;SDS011;4452;50.756;4.472;2022-12-08T05:09:22;83.45;;;30.77;;
8831;SDS011;4452;50.756;4.472;2022-12-08T05:11:48;84.40;;;33.40;;
8831;SDS011;4452;50.756;4.472;2022-12-08T05:14:14;84.82;;;30.55;;
8831;SDS011;4452;50.756;4.472;2022-12-08T05:16:42;71.55;;;28.90;;
8831;SDS011;4452;50.756;4.472;2022-12-08T05:19:08;90.65;;;31.83;;
8831;SDS011;4452;50.756;4.472;2022-12-08T05:21:34;62.47;;;25.48;;
8831;SDS011;4452;50.756;4.472;2022-12-08T05:23:59;89.65;;;30.77;;
8831;SDS011;4452;50.756;4.472;2022-12-08T05:26:25;75.80;;;28.85;;
8831;SDS011;4452;50.756;4.472;2022-12-08T05:28:51;70.90;;;29.67;;
8831;SDS011;4452;50.756;4.472;2022-12-08T05:31:17;89.85;;;30.00;;
8831;SDS011;4452;50.756;4.472;2022-12-08T05:33:43;87.93;;;30.05;;
8831;SDS011;4452;50.756;4.472;2022-12-08T05:36:13;89.15;;;26.88;;
8831;SDS011;4452;50.756;4.472;2022-12-08T05:38:39;95.65;;;34.70;;
8831;SDS011;4452;50.756;4.472;2022-12-08T05:41:05;98.95;;;34.10;;
8831;SDS011;4452;50.756;4.472;2022-12-08T05:43:31;101.43;;;37.25;;
8831;SDS011;4452;50.756;4.472;2022-12-08T05:45:57;64.93;;;25.65;;
8831;SDS011;4452;50.756;4.472;2022-12-08T05:48:23;85.00;;;28.55;;
8831;SDS011;4452;50.756;4.472;2022-12-08T05:50:49;56.47;;;22.08;;
8831;SDS011;4452;50.756;4.472;2022-12-08T05:53:15;56.00;;;23.13;;
8831;SDS011;4452;50.756;4.472;2022-12-08T05:55:43;68.20;;;22.45;;
8831;SDS011;4452;50.756;4.472;2022-12-08T05:58:11;62.70;;;25.50;;
8831;SDS011;4452;50.756;4.472;2022-12-08T06:00:39;80.35;;;27.23;;
8831;SDS011;4452;50.756;4.472;2022-12-08T06:03:05;87.90;;;32.47;;
8831;SDS011;4452;50.756;4.472;2022-12-08T06:05:34;89.85;;;30.25;;
8831;SDS011;4452;50.756;4.472;2022-12-08T06:08:00;79.95;;;26.83;;
8831;SDS011;4452;50.756;4.472;2022-12-08T06:10:26;42.67;;;18.92;;
8831;SDS011;4452;50.756;4.472;2022-12-08T06:12:52;61.42;;;25.30;;
8831;SDS011;4452;50.756;4.472;2022-12-08T06:15:17;81.47;;;27.80;;
8831;SDS011;4452;50.756;4.472;2022-12-08T06:17:43;39.53;;;16.88;;
8831;SDS011;4452;50.756;4.472;2022-12-08T06:20:09;74.65;;;26.92;;
8831;SDS011;4452;50.756;4.472;2022-12-08T06:22:35;68.50;;;24.40;;
8831;SDS011;4452;50.756;4.472;2022-12-08T06:25:01;54.45;;;18.70;;
8831;SDS011;4452;50.756;4.472;2022-12-08T06:27:27;50.78;;;18.30;;
8831;SDS011;4452;50.756;4.472;2022-12-08T06:29:53;29.15;;;14.25;;
8831;SDS011;4452;50.756;4.472;2022-12-08T06:32:18;34.03;;;14.95;;
8831;SDS011;4452;50.756;4.472;2022-12-08T06:34:44;57.33;;;22.25;;
8831;SDS011;4452;50.756;4.472;2022-12-08T06:37:10;29.02;;;12.95;;
8831;SDS011;4452;50.756;4.472;2022-12-08T06:39:36;67.07;;;24.00;;
8831;SDS011;4452;50.756;4.472;2022-12-08T06:42:02;27.92;;;11.40;;
8831;SDS011;4452;50.756;4.472;2022-12-08T06:44:46;69.72;;;24.40;;
8831;SDS011;4452;50.756;4.472;2022-12-08T06:47:12;48.53;;;19.20;;
8831;SDS011;4452;50.756;4.472;2022-12-08T06:49:38;46.63;;;18.40;;
8831;SDS011;4452;50.756;4.472;2022-12-08T06:52:04;29.98;;;15.05;;
8831;SDS011;4452;50.756;4.472;2022-12-08T06:54:30;55.08;;;21.23;;
8831;SDS011;4452;50.756;4.472;2022-12-08T06:56:55;27.08;;;16.60;;
8831;SDS011;4452;50.756;4.472;2022-12-08T06:59:21;38.97;;;15.05;;
8831;SDS011;4452;50.756;4.472;2022-12-08T07:01:50;56.55;;;23.92;;
8831;SDS011;4452;50.756;4.472;2022-12-08T07:04:16;47.25;;;22.45;;
8831;SDS011;4452;50.756;4.472;2022-12-08T07:06:42;50.08;;;21.92;;
8831;SDS011;4452;50.756;4.472;2022-12-08T07:09:07;48.05;;;17.50;;
8831;SDS011;4452;50.756;4.472;2022-12-08T07:11:33;48.13;;;19.63;;
8831;SDS011;4452;50.756;4.472;2022-12-08T07:13:59;68.07;;;23.83;;
8831;SDS011;4452;50.756;4.472;2022-12-08T07:16:25;55.85;;;22.08;;
8831;SDS011;4452;50.756;4.472;2022-12-08T07:18:50;50.17;;;19.60;;
8831;SDS011;4452;50.756;4.472;2022-12-08T07:21:16;58.10;;;22.83;;
8831;SDS011;4452;50.756;4.472;2022-12-08T07:23:44;57.28;;;21.90;;
8831;SDS011;4452;50.756;4.472;2022-12-08T07:26:11;45.78;;;20.10;;
8831;SDS011;4452;50.756;4.472;2022-12-08T07:28:37;37.83;;;16.25;;
8831;SDS011;4452;50.756;4.472;2022-12-08T07:31:04;30.38;;;12.75;;
8831;SDS011;4452;50.756;4.472;2022-12-08T07:33:31;49.10;;;21.25;;
8831;SDS011;4452;50.756;4.472;2022-12-08T07:36:02;55.67;;;22.38;;
8831;SDS011;4452;50.756;4.472;2022-12-08T07:38:29;58.30;;;22.83;;
8831;SDS011;4452;50.756;4.472;2022-12-08T07:40:55;49.90;;;22.70;;
8831;SDS011;4452;50.756;4.472;2022-12-08T07:43:21;62.50;;;22.50;;
8831;SDS011;4452;50.756;4.472;2022-12-08T07:45:48;46.08;;;21.13;;
8831;SDS011;4452;50.756;4.472;2022-12-08T07:48:14;33.35;;;15.00;;
8831;SDS011;4452;50.756;4.472;2022-12-08T07:50:40;39.28;;;15.50;;
8831;SDS011;4452;50.756;4.472;2022-12-08T07:53:06;52.28;;;19.52;;
8831;SDS011;4452;50.756;4.472;2022-12-08T07:55:32;27.88;;;13.13;;
8831;SDS011;4452;50.756;4.472;2022-12-08T07:57:58;51.00;;;21.85;;
8831;SDS011;4452;50.756;4.472;2022-12-08T08:00:24;55.78;;;23.27;;
8831;SDS011;4452;50.756;4.472;2022-12-08T08:02:50;37.83;;;12.32;;
8831;SDS011;4452;50.756;4.472;2022-12-08T08:05:15;57.42;;;23.30;;
8831;SDS011;4452;50.756;4.472;2022-12-08T08:07:41;42.95;;;17.55;;
8831;SDS011;4452;50.756;4.472;2022-12-08T08:10:08;63.85;;;22.83;;
8831;SDS011;4452;50.756;4.472;2022-12-08T08:12:35;60.20;;;22.40;;
8831;SDS011;4452;50.756;4.472;2022-12-08T08:15:02;60.10;;;24.27;;
8831;SDS011;4452;50.756;4.472;2022-12-08T08:17:29;62.13;;;23.88;;
8831;SDS011;4452;50.756;4.472;2022-12-08T08:19:55;49.10;;;22.55;;
8831;SDS011;4452;50.756;4.472;2022-12-08T08:22:21;49.78;;;18.33;;
8831;SDS011;4452;50.756;4.472;2022-12-08T08:24:46;37.70;;;17.95;;
8831;SDS011;4452;50.756;4.472;2022-12-08T08:27:12;48.08;;;20.80;;
8831;SDS011;4452;50.756;4.472;2022-12-08T08:29:38;61.33;;;21.65;;
8831;SDS011;4452;50.756;4.472;2022-12-08T08:32:03;28.45;;;11.95;;
8831;SDS011;4452;50.756;4.472;2022-12-08T08:34:29;40.78;;;18.63;;
8831;SDS011;4452;50.756;4.472;2022-12-08T08:36:55;63.30;;;25.27;;
8831;SDS011;4452;50.756;4.472;2022-12-08T08:39:20;62.50;;;23.92;;
8831;SDS011;4452;50.756;4.472;2022-12-08T08:41:46;65.80;;;24.02;;
8831;SDS011;4452;50.756;4.472;2022-12-08T08:44:12;40.65;;;18.42;;
8831;SDS011;4452;50.756;4.472;2022-12-08T08:46:39;49.22;;;19.27;;
8831;SDS011;4452;50.756;4.472;2022-12-08T08:49:05;49.97;;;19.60;;
8831;SDS011;4452;50.756;4.472;2022-12-08T08:51:30;54.88;;;18.38;;
8831;SDS011;4452;50.756;4.472;2022-12-08T08:53:56;40.15;;;17.92;;
8831;SDS011;4452;50.756;4.472;2022-12-08T08:56:22;25.92;;;12.55;;
8831;SDS011;4452;50.756;4.472;2022-12-08T08:58:48;50.63;;;20.77;;
8831;SDS011;4452;50.756;4.472;2022-12-08T09:01:15;31.75;;;15.20;;
8831;SDS011;4452;50.756;4.472;2022-12-08T09:03:43;58.45;;;23.13;;
8831;SDS011;4452;50.756;4.472;2022-12-08T09:06:09;39.40;;;19.25;;
8831;SDS011;4452;50.756;4.472;2022-12-08T09:08:35;47.97;;;18.88;;
8831;SDS011;4452;50.756;4.472;2022-12-08T09:11:00;27.33;;;14.25;;
8831;SDS011;4452;50.756;4.472;2022-12-08T09:13:26;16.65;;;10.52;;
8831;SDS011;4452;50.756;4.472;2022-12-08T09:15:52;40.05;;;16.20;;
8831;SDS011;4452;50.756;4.472;2022-12-08T09:18:17;41.97;;;20.33;;
8831;SDS011;4452;50.756;4.472;2022-12-08T09:20:43;25.38;;;13.02;;
8831;SDS011;4452;50.756;4.472;2022-12-08T09:23:08;28.52;;;10.80;;
8831;SDS011;4452;50.756;4.472;2022-12-08T09:25:34;40.50;;;17.13;;
8831;SDS011;4452;50.756;4.472;2022-12-08T09:28:00;21.95;;;11.98;;
8831;SDS011;4452;50.756;4.472;2022-12-08T09:30:25;28.33;;;13.85;;
8831;SDS011;4452;50.756;4.472;2022-12-08T09:32:52;43.05;;;17.52;;
8831;SDS011;4452;50.756;4.472;2022-12-08T09:35:17;34.17;;;16.75;;
8831;SDS011;4452;50.756;4.472;2022-12-08T09:37:43;39.03;;;14.40;;
8831;SDS011;4452;50.756;4.472;2022-12-08T09:40:09;35.45;;;16.33;;
8831;SDS011;4452;50.756;4.472;2022-12-08T09:42:42;47.40;;;16.25;;
8831;SDS011;4452;50.756;4.472;2022-12-08T09:45:14;25.33;;;11.77;;
8831;SDS011;4452;50.756;4.472;2022-12-08T09:47:42;33.60;;;13.15;;
8831;SDS011;4452;50.756;4.472;2022-12-08T09:50:21;33.72;;;13.63;;
8831;SDS011;4452;50.756;4.472;2022-12-08T09:55:58;32.28;;;14.05;;
8831;SDS011;4452;50.756;4.472;2022-12-08T10:01:11;26.45;;;13.98;;
8831;SDS011;4452;50.756;4.472;2022-12-08T10:03:37;21.60;;;10.25;;
8831;SDS011;4452;50.756;4.472;2022-12-08T10:11:42;25.67;;;11.85;;
8831;SDS011;4452;50.756;4.472;2022-12-08T10:16:45;24.85;;;12.00;;
8831;SDS011;4452;50.756;4.472;2022-12-08T10:19:20;38.42;;;15.65;;
8831;SDS011;4452;50.756;4.472;2022-12-08T10:21:47;25.70;;;11.88;;
8831;SDS011;4452;50.756;4.472;2022-12-08T10:24:15;26.60;;;13.40;;
8831;SDS011;4452;50.756;4.472;2022-12-08T10:26:49;31.83;;;13.68;;
8831;SDS011;4452;50.756;4.472;2022-12-08T10:29:14;21.73;;;10.27;;
8831;SDS011;4452;50.756;4.472;2022-12-08T10:31:40;32.40;;;11.95;;
8831;SDS011;4452;50.756;4.472;2022-12-08T10:34:13;31.35;;;12.88;;
8831;SDS011;4452;50.756;4.472;2022-12-08T10:36:56;28.95;;;13.30;;
8831;SDS011;4452;50.756;4.472;2022-12-08T10:39:39;25.27;;;12.50;;
8831;SDS011;4452;50.756;4.472;2022-12-08T10:47:24;28.30;;;10.73;;
8831;SDS011;4452;50.756;4.472;2022-12-08T10:52:39;20.88;;;9.68;;
8831;SDS011;4452;50.756;4.472;2022-12-08T10:55:15;21.00;;;10.82;;
8831;SDS011;4452;50.756;4.472;2022-12-08T10:57:43;24.27;;;10.52;;
8831;SDS011;4452;50.756;4.472;2022-12-08T11:00:13;17.80;;;9.82;;
8831;SDS011;4452;50.756;4.472;2022-12-08T11:03:00;31.83;;;14.45;;
8831;SDS011;4452;50.756;4.472;2022-12-08T11:05:31;26.45;;;11.07;;
8831;SDS011;4452;50.756;4.472;2022-12-08T11:07:58;20.88;;;10.15;;
8831;SDS011;4452;50.756;4.472;2022-12-08T11:10:35;26.40;;;13.32;;
8831;SDS011;4452;50.756;4.472;2022-12-08T11:13:23;19.10;;;9.65;;
8831;SDS011;4452;50.756;4.472;2022-12-08T11:15:51;18.10;;;10.02;;
8831;SDS011;4452;50.756;4.472;2022-12-08T11:18:20;17.17;;;10.07;;
8831;SDS011;4452;50.756;4.472;2022-12-08T11:21:05;19.65;;;8.98;;
8831;SDS011;4452;50.756;4.472;2022-12-08T11:23:34;28.05;;;12.20;;
8831;SDS011;4452;50.756;4.472;2022-12-08T11:26:06;14.77;;;9.45;;
8831;SDS011;4452;50.756;4.472;2022-12-08T11:28:56;19.88;;;10.90;;
8831;SDS011;4452;50.756;4.472;2022-12-08T11:31:37;22.38;;;11.50;;
8831;SDS011;4452;50.756;4.472;2022-12-08T11:34:08;16.05;;;10.18;;
8831;SDS011;4452;50.756;4.472;2022-12-08T11:36:43;19.42;;;10.98;;
8831;SDS011;4452;50.756;4.472;2022-12-08T11:39:10;15.60;;;7.28;;
8831;SDS011;4452;50.756;4.472;2022-12-08T11:41:37;17.98;;;10.07;;
8831;SDS011;4452;50.756;4.472;2022-12-08T11:47:17;16.60;;;10.77;;
8831;SDS011;4452;50.756;4.472;2022-12-08T11:49:48;11.13;;;6.85;;
8831;SDS011;4452;50.756;4.472;2022-12-08T11:52:34;17.10;;;8.80;;
8831;SDS011;4452;50.756;4.472;2022-12-08T11:55:29;19.85;;;9.25;;
8831;SDS011;4452;50.756;4.472;2022-12-08T11:57:59;19.02;;;7.93;;
8831;SDS011;4452;50.756;4.472;2022-12-08T12:00:35;19.90;;;8.70;;
8831;SDS011;4452;50.756;4.472;2022-12-08T12:03:08;17.60;;;8.10;;
8831;SDS011;4452;50.756;4.472;2022-12-08T12:11:06;16.80;;;9.38;;
8831;SDS011;4452;50.756;4.472;2022-12-08T12:16:44;16.58;;;8.93;;
8831;SDS011;4452;50.756;4.472;2022-12-08T12:19:19;17.83;;;8.77;;
8831;SDS011;4452;50.756;4.472;2022-12-08T12:21:47;17.38;;;7.97;;
8831;SDS011;4452;50.756;4.472;2022-12-08T12:24:18;16.33;;;8.45;;
8831;SDS011;4452;50.756;4.472;2022-12-08T12:26:53;15.20;;;8.82;;
8831;SDS011;4452;50.756;4.472;2022-12-08T12:29:23;10.88;;;6.32;;
8831;SDS011;4452;50.756;4.472;2022-12-08T12:31:53;16.88;;;8.05;;
8831;SDS011;4452;50.756;4.472;2022-12-08T12:34:29;19.63;;;8.20;;
8831;SDS011;4452;50.756;4.472;2022-12-08T12:37:03;13.98;;;6.90;;
8831;SDS011;4452;50.756;4.472;2022-12-08T12:47:48;18.83;;;9.32;;
8831;SDS011;4452;50.756;4.472;2022-12-08T12:52:58;19.20;;;8.05;;
8831;SDS011;4452;50.756;4.472;2022-12-08T12:55:49;18.70;;;9.00;;
8831;SDS011;4452;50.756;4.472;2022-12-08T13:03:37;14.05;;;7.53;;
8831;SDS011;4452;50.756;4.472;2022-12-08T13:06:06;15.90;;;8.95;;
8831;SDS011;4452;50.756;4.472;2022-12-08T13:08:36;13.63;;;6.80;;
8831;SDS011;4452;50.756;4.472;2022-12-08T13:11:14;14.70;;;7.65;;
8831;SDS011;4452;50.756;4.472;2022-12-08T13:13:58;11.63;;;7.78;;
8831;SDS011;4452;50.756;4.472;2022-12-08T13:16:30;16.38;;;8.23;;
8831;SDS011;4452;50.756;4.472;2022-12-08T13:18:58;24.00;;;9.20;;
8831;SDS011;4452;50.756;4.472;2022-12-08T13:21:35;10.27;;;6.18;;
8831;SDS011;4452;50.756;4.472;2022-12-08T13:26:44;20.95;;;8.63;;
8831;SDS011;4452;50.756;4.472;2022-12-08T13:29:32;11.05;;;6.45;;
8831;SDS011;4452;50.756;4.472;2022-12-08T13:39:42;9.63;;;5.72;;
8831;SDS011;4452;50.756;4.472;2022-12-08T13:42:20;19.73;;;8.50;;
8831;SDS011;4452;50.756;4.472;2022-12-08T13:44:54;17.35;;;8.65;;
8831;SDS011;4452;50.756;4.472;2022-12-08T13:50:13;11.68;;;6.15;;
8831;SDS011;4452;50.756;4.472;2022-12-08T13:52:44;18.00;;;9.10;;
8831;SDS011;4452;50.756;4.472;2022-12-08T13:55:21;12.63;;;7.13;;
8831;SDS011;4452;50.756;4.472;2022-12-08T13:57:52;13.77;;;6.65;;
8831;SDS011;4452;50.756;4.472;2022-12-08T14:00:20;12.43;;;7.00;;
8831;SDS011;4452;50.756;4.472;2022-12-08T14:02:48;15.82;;;7.25;;
8831;SDS011;4452;50.756;4.472;2022-12-08T14:05:17;14.90;;;7.88;;
8831;SDS011;4452;50.756;4.472;2022-12-08T14:07:45;19.67;;;8.30;;
8831;SDS011;4452;50.756;4.472;2022-12-08T14:10:15;14.27;;;8.95;;
8831;SDS011;4452;50.756;4.472;2022-12-08T14:12:59;19.02;;;7.93;;
8831;SDS011;4452;50.756;4.472;2022-12-08T14:15:27;15.73;;;9.00;;
8831;SDS011;4452;50.756;4.472;2022-12-08T14:17:54;14.45;;;7.90;;
8831;SDS011;4452;50.756;4.472;2022-12-08T14:20:27;16.42;;;7.75;;
8831;SDS011;4452;50.756;4.472;2022-12-08T14:22:54;18.13;;;9.50;;
8831;SDS011;4452;50.756;4.472;2022-12-08T14:25:21;17.98;;;6.97;;
8831;SDS011;4452;50.756;4.472;2022-12-08T14:27:48;17.00;;;8.75;;
8831;SDS011;4452;50.756;4.472;2022-12-08T14:32:49;15.70;;;9.13;;
8831;SDS011;4452;50.756;4.472;2022-12-08T14:35:19;17.52;;;9.15;;
8831;SDS011;4452;50.756;4.472;2022-12-08T14:37:49;19.63;;;9.10;;
8831;SDS011;4452;50.756;4.472;2022-12-08T14:42:45;13.35;;;8.73;;
8831;SDS011;4452;50.756;4.472;2022-12-08T14:45:28;15.75;;;8.70;;
8831;SDS011;4452;50.756;4.472;2022-12-08T14:59:12;21.92;;;9.68;;
8831;SDS011;4452;50.756;4.472;2022-12-08T15:01:42;19.90;;;9.98;;
8831;SDS011;4452;50.756;4.472;2022-12-08T15:06:59;28.08;;;10.88;;
8831;SDS011;4452;50.756;4.472;2022-12-08T15:09:27;20.52;;;10.88;;
8831;SDS011;4452;50.756;4.472;2022-12-08T15:14:36;19.67;;;9.45;;
8831;SDS011;4452;50.756;4.472;2022-12-08T15:20:05;24.75;;;11.25;;
8831;SDS011;4452;50.756;4.472;2022-12-08T15:22:53;19.00;;;9.30;;
8831;SDS011;4452;50.756;4.472;2022-12-08T15:25:19;19.08;;;8.88;;
8831;SDS011;4452;50.756;4.472;2022-12-08T15:27:45;30.38;;;11.45;;
8831;SDS011;4452;50.756;4.472;2022-12-08T15:30:12;24.58;;;10.70;;
8831;SDS011;4452;50.756;4.472;2022-12-08T15:32:38;25.15;;;10.05;;
8831;SDS011;4452;50.756;4.472;2022-12-08T15:35:04;17.60;;;8.43;;
8831;SDS011;4452;50.756;4.472;2022-12-08T15:37:30;24.65;;;10.00;;
8831;SDS011;4452;50.756;4.472;2022-12-08T15:39:56;20.00;;;9.98;;
8831;SDS011;4452;50.756;4.472;2022-12-08T15:42:22;22.00;;;10.88;;
8831;SDS011;4452;50.756;4.472;2022-12-08T15:44:51;30.10;;;9.85;;
8831;SDS011;4452;50.756;4.472;2022-12-08T15:47:19;14.90;;;8.13;;
8831;SDS011;4452;50.756;4.472;2022-12-08T15:49:51;13.95;;;6.93;;
8831;SDS011;4452;50.756;4.472;2022-12-08T15:52:21;29.13;;;10.88;;
8831;SDS011;4452;50.756;4.472;2022-12-08T15:54:50;27.48;;;11.02;;
8831;SDS011;4452;50.756;4.472;2022-12-08T15:57:22;28.98;;;9.90;;
8831;SDS011;4452;50.756;4.472;2022-12-08T15:59:52;23.08;;;11.13;;
8831;SDS011;4452;50.756;4.472;2022-12-08T16:02:20;29.33;;;13.90;;
8831;SDS011;4452;50.756;4.472;2022-12-08T16:04:46;31.85;;;11.35;;
8831;SDS011;4452;50.756;4.472;2022-12-08T16:09:52;29.70;;;12.63;;
8831;SDS011;4452;50.756;4.472;2022-12-08T16:12:20;26.73;;;12.40;;
8831;SDS011;4452;50.756;4.472;2022-12-08T16:15:06;21.40;;;9.55;;
8831;SDS011;4452;50.756;4.472;2022-12-08T16:17:32;16.27;;;9.57;;
8831;SDS011;4452;50.756;4.472;2022-12-08T16:19:59;22.15;;;11.45;;
8831;SDS011;4452;50.756;4.472;2022-12-08T16:22:26;30.10;;;14.90;;
8831;SDS011;4452;50.756;4.472;2022-12-08T16:24:53;13.43;;;8.75;;
8831;SDS011;4452;50.756;4.472;2022-12-08T16:27:23;23.77;;;11.55;;
8831;SDS011;4452;50.756;4.472;2022-12-08T16:29:55;24.08;;;11.75;;
8831;SDS011;4452;50.756;4.472;2022-12-08T16:32:22;35.38;;;14.10;;
8831;SDS011;4452;50.756;4.472;2022-12-08T16:34:49;37.28;;;15.63;;
8831;SDS011;4452;50.756;4.472;2022-12-08T16:37:16;36.20;;;16.20;;
8831;SDS011;4452;50.756;4.472;2022-12-08T16:39:44;29.60;;;13.50;;
8831;SDS011;4452;50.756;4.472;2022-12-08T16:42:13;26.25;;;12.88;;
8831;SDS011;4452;50.756;4.472;2022-12-08T16:47:58;29.15;;;12.50;;
8831;SDS011;4452;50.756;4.472;2022-12-08T16:50:25;45.03;;;20.33;;
8831;SDS011;4452;50.756;4.472;2022-12-08T16:52:57;23.88;;;9.98;;
8831;SDS011;4452;50.756;4.472;2022-12-08T16:55:25;32.10;;;14.95;;
8831;SDS011;4452;50.756;4.472;2022-12-08T16:57:51;19.67;;;11.32;;
8831;SDS011;4452;50.756;4.472;2022-12-08T17:00:18;29.35;;;16.85;;
8831;SDS011;4452;50.756;4.472;2022-12-08T17:02:46;29.40;;;15.35;;
8831;SDS011;4452;50.756;4.472;2022-12-08T17:05:13;33.67;;;15.48;;
8831;SDS011;4452;50.756;4.472;2022-12-08T17:07:40;28.58;;;15.15;;
8831;SDS011;4452;50.756;4.472;2022-12-08T17:10:08;41.70;;;21.92;;
8831;SDS011;4452;50.756;4.472;2022-12-08T17:12:36;22.00;;;11.75;;